X  Sluiten METAR luchtvaart weer gegevens      EHLW Leeuwarden Air Base
Temperatuur
8°C Temperatuur
7°C Dauwpunt
93% Vochtigheid



Wind
3 KM/U
2 MPH
1 M/S
2 KTS



160°
ZZO
Huidig weer

Grotendeels bewolkt Grotendeels bewolkt
Luchtdruk 1004.92 (hPa) - 29.68 (inHg)
Zicht 6.2 (mijl) - 10 (km)
Vliegveld
Vliegveld code EHLW

Locatie : Leeuwarden Air Base
Afstand: 30 (km)

Metar:
EHLW 150325Z AUTO 16002KT 9999 BKN022 OVC026 08/07 Q1005 WHT

Tijd: 15-05-2021 05:25 CEST